sensor_id;sensor_type;location;lat;lon;timestamp;pressure;altitude;pressure_sealevel;temperature;humidity
4836;BME280;66719;51.226;6.902;2024-02-04T00:00:04;101555.44;;;10.10;100.00
4836;BME280;66719;51.226;6.902;2024-02-04T00:02:32;101568.53;;;10.08;100.00
4836;BME280;66719;51.226;6.902;2024-02-04T00:04:59;101562.41;;;10.08;100.00
4836;BME280;66719;51.226;6.902;2024-02-04T00:07:25;101571.16;;;9.99;100.00
4836;BME280;66719;51.226;6.902;2024-02-04T00:09:53;101570.28;;;9.94;100.00
4836;BME280;66719;51.226;6.902;2024-02-04T00:12:20;101572.91;;;9.96;100.00
4836;BME280;66719;51.226;6.902;2024-02-04T00:14:47;101572.00;;;10.04;100.00
4836;BME280;66719;51.226;6.902;2024-02-04T00:17:16;101560.69;;;9.95;100.00
4836;BME280;66719;51.226;6.902;2024-02-04T00:19:43;101555.47;;;10.01;100.00
4836;BME280;66719;51.226;6.902;2024-02-04T00:22:10;101563.31;;;9.96;100.00
4836;BME280;66719;51.226;6.902;2024-02-04T00:24:36;101557.19;;;9.99;100.00
4836;BME280;66719;51.226;6.902;2024-02-04T00:27:03;101548.50;;;10.00;100.00
4836;BME280;66719;51.226;6.902;2024-02-04T00:29:30;101533.66;;;10.02;100.00
4836;BME280;66719;51.226;6.902;2024-02-04T00:31:56;101534.53;;;10.01;100.00
4836;BME280;66719;51.226;6.902;2024-02-04T00:34:23;101541.50;;;10.00;100.00
4836;BME280;66719;51.226;6.902;2024-02-04T00:36:50;101538.00;;;9.98;100.00
4836;BME280;66719;51.226;6.902;2024-02-04T00:39:16;101537.13;;;10.04;100.00
4836;BME280;66719;51.226;6.902;2024-02-04T00:41:43;101531.03;;;10.00;100.00
4836;BME280;66719;51.226;6.902;2024-02-04T00:44:09;101541.50;;;10.02;100.00
4836;BME280;66719;51.226;6.902;2024-02-04T00:46:36;101541.50;;;9.99;100.00
4836;BME280;66719;51.226;6.902;2024-02-04T00:49:02;101548.47;;;9.97;100.00
4836;BME280;66719;51.226;6.902;2024-02-04T00:51:29;101544.13;;;9.96;100.00
4836;BME280;66719;51.226;6.902;2024-02-04T00:53:56;101535.41;;;10.01;100.00
4836;BME280;66719;51.226;6.902;2024-02-04T00:56:23;101536.25;;;9.99;100.00
4836;BME280;66719;51.226;6.902;2024-02-04T00:58:50;101538.88;;;9.99;100.00
4836;BME280;66719;51.226;6.902;2024-02-04T01:01:16;101529.31;;;9.95;100.00
4836;BME280;66719;51.226;6.902;2024-02-04T01:03:43;101531.94;;;9.99;100.00
4836;BME280;66719;51.226;6.902;2024-02-04T01:06:10;101532.78;;;9.98;100.00
4836;BME280;66719;51.226;6.902;2024-02-04T01:08:37;101532.78;;;9.97;100.00
4836;BME280;66719;51.226;6.902;2024-02-04T01:11:05;101535.41;;;9.97;100.00
4836;BME280;66719;51.226;6.902;2024-02-04T01:13:32;101539.78;;;9.95;100.00
4836;BME280;66719;51.226;6.902;2024-02-04T01:15:58;101527.56;;;9.95;100.00
4836;BME280;66719;51.226;6.902;2024-02-04T01:18:25;101531.06;;;9.93;100.00
4836;BME280;66719;51.226;6.902;2024-02-04T01:20:52;101521.47;;;9.91;100.00
4836;BME280;66719;51.226;6.902;2024-02-04T01:23:18;101520.59;;;9.93;100.00
4836;BME280;66719;51.226;6.902;2024-02-04T01:25:46;101515.34;;;9.94;100.00
4836;BME280;66719;51.226;6.902;2024-02-04T01:28:12;101523.19;;;9.94;100.00
4836;BME280;66719;51.226;6.902;2024-02-04T01:30:39;101521.47;;;9.99;100.00
4836;BME280;66719;51.226;6.902;2024-02-04T01:33:05;101521.44;;;9.96;100.00
4836;BME280;66719;51.226;6.902;2024-02-04T01:35:32;101524.91;;;9.98;100.00
4836;BME280;66719;51.226;6.902;2024-02-04T01:37:58;101531.91;;;9.96;100.00
4836;BME280;66719;51.226;6.902;2024-02-04T01:40:25;101536.25;;;9.99;100.00
4836;BME280;66719;51.226;6.902;2024-02-04T01:42:52;101545.84;;;9.98;100.00
4836;BME280;66719;51.226;6.902;2024-02-04T01:45:19;101551.94;;;9.99;100.00
4836;BME280;66719;51.226;6.902;2024-02-04T01:47:45;101529.28;;;9.98;100.00
4836;BME280;66719;51.226;6.902;2024-02-04T01:50:12;101535.41;;;10.00;100.00
4836;BME280;66719;51.226;6.902;2024-02-04T01:52:39;101523.19;;;10.00;100.00
4836;BME280;66719;51.226;6.902;2024-02-04T01:55:08;101514.47;;;10.00;100.00
4836;BME280;66719;51.226;6.902;2024-02-04T01:57:36;101514.47;;;10.01;100.00
4836;BME280;66719;51.226;6.902;2024-02-04T02:00:03;101522.31;;;10.03;100.00
4836;BME280;66719;51.226;6.902;2024-02-04T02:02:39;101515.31;;;10.05;100.00
4836;BME280;66719;51.226;6.902;2024-02-04T02:05:07;101514.47;;;10.01;100.00
4836;BME280;66719;51.226;6.902;2024-02-04T02:07:35;101517.97;;;10.00;100.00
4836;BME280;66719;51.226;6.902;2024-02-04T02:10:01;101516.19;;;10.04;100.00
4836;BME280;66719;51.226;6.902;2024-02-04T02:12:43;101512.69;;;10.05;100.00
4836;BME280;66719;51.226;6.902;2024-02-04T02:15:25;101510.97;;;10.04;100.00
4836;BME280;66719;51.226;6.902;2024-02-04T02:18:04;101514.44;;;10.06;100.00
4836;BME280;66719;51.226;6.902;2024-02-04T02:21:16;101506.59;;;10.06;100.00
4836;BME280;66719;51.226;6.902;2024-02-04T02:23:43;101512.69;;;10.06;100.00
4836;BME280;66719;51.226;6.902;2024-02-04T02:26:16;101510.09;;;10.05;100.00
4836;BME280;66719;51.226;6.902;2024-02-04T02:28:43;101504.84;;;10.06;100.00
4836;BME280;66719;51.226;6.902;2024-02-04T02:31:09;101508.34;;;10.05;100.00
4836;BME280;66719;51.226;6.902;2024-02-04T02:33:37;101517.06;;;10.06;100.00
4836;BME280;66719;51.226;6.902;2024-02-04T02:36:09;101513.56;;;10.07;100.00
4836;BME280;66719;51.226;6.902;2024-02-04T02:38:59;101503.09;;;10.05;100.00
4836;BME280;66719;51.226;6.902;2024-02-04T02:41:29;101506.59;;;10.06;100.00
4836;BME280;66719;51.226;6.902;2024-02-04T02:43:58;101500.47;;;10.07;100.00
4836;BME280;66719;51.226;6.902;2024-02-04T02:46:27;101504.84;;;10.11;100.00
4836;BME280;66719;51.226;6.902;2024-02-04T02:48:54;101517.91;;;10.11;100.00
4836;BME280;66719;51.226;6.902;2024-02-04T02:51:20;101517.94;;;10.09;100.00
4836;BME280;66719;51.226;6.902;2024-02-04T02:53:47;101519.66;;;10.07;100.00
4836;BME280;66719;51.226;6.902;2024-02-04T02:56:13;101513.56;;;10.07;100.00
4836;BME280;66719;51.226;6.902;2024-02-04T02:58:40;101505.72;;;10.08;100.00
4836;BME280;66719;51.226;6.902;2024-02-04T03:01:06;101507.44;;;10.14;100.00
4836;BME280;66719;51.226;6.902;2024-02-04T03:03:33;101503.06;;;10.16;100.00
4836;BME280;66719;51.226;6.902;2024-02-04T03:06:00;101509.19;;;10.13;100.00
4836;BME280;66719;51.226;6.902;2024-02-04T03:08:27;101498.72;;;10.16;100.00
4836;BME280;66719;51.226;6.902;2024-02-04T03:10:53;101494.34;;;10.17;100.00
4836;BME280;66719;51.226;6.902;2024-02-04T03:13:20;101505.69;;;10.17;100.00
4836;BME280;66719;51.226;6.902;2024-02-04T03:15:47;101497.81;;;10.14;100.00
4836;BME280;66719;51.226;6.902;2024-02-04T03:18:13;101505.69;;;10.14;100.00
4836;BME280;66719;51.226;6.902;2024-02-04T03:20:40;101497.81;;;10.16;100.00
4836;BME280;66719;51.226;6.902;2024-02-04T03:23:06;101491.75;;;10.12;100.00
4836;BME280;66719;51.226;6.902;2024-02-04T03:25:33;101494.34;;;10.15;100.00
4836;BME280;66719;51.226;6.902;2024-02-04T03:28:00;101491.72;;;10.14;100.00
4836;BME280;66719;51.226;6.902;2024-02-04T03:30:26;101486.50;;;10.12;100.00
4836;BME280;66719;51.226;6.902;2024-02-04T03:32:53;101487.38;;;10.11;100.00
4836;BME280;66719;51.226;6.902;2024-02-04T03:35:20;101484.75;;;10.13;100.00
4836;BME280;66719;51.226;6.902;2024-02-04T03:37:46;101478.66;;;10.17;100.00
4836;BME280;66719;51.226;6.902;2024-02-04T03:40:13;101490.84;;;10.21;100.00
4836;BME280;66719;51.226;6.902;2024-02-04T03:42:40;101485.63;;;10.18;100.00
4836;BME280;66719;51.226;6.902;2024-02-04T03:45:07;101485.63;;;10.15;100.00
4836;BME280;66719;51.226;6.902;2024-02-04T03:47:34;101476.91;;;10.14;100.00
4836;BME280;66719;51.226;6.902;2024-02-04T03:50:00;101476.88;;;10.16;100.00
4836;BME280;66719;51.226;6.902;2024-02-04T03:52:27;101480.38;;;10.15;100.00
4836;BME280;66719;51.226;6.902;2024-02-04T03:54:53;101470.78;;;10.14;100.00
4836;BME280;66719;51.226;6.902;2024-02-04T03:57:20;101476.00;;;10.15;100.00
4836;BME280;66719;51.226;6.902;2024-02-04T03:59:47;101482.13;;;10.19;100.00
4836;BME280;66719;51.226;6.902;2024-02-04T04:02:13;101484.75;;;10.19;100.00
4836;BME280;66719;51.226;6.902;2024-02-04T04:04:40;101483.88;;;10.15;100.00
4836;BME280;66719;51.226;6.902;2024-02-04T04:07:14;101489.97;;;10.19;100.00
4836;BME280;66719;51.226;6.902;2024-02-04T04:09:40;101476.88;;;10.20;100.00
4836;BME280;66719;51.226;6.902;2024-02-04T04:12:07;101463.81;;;10.22;100.00
4836;BME280;66719;51.226;6.902;2024-02-04T04:14:34;101473.38;;;10.20;100.00
4836;BME280;66719;51.226;6.902;2024-02-04T04:17:00;101485.59;;;10.21;100.00
4836;BME280;66719;51.226;6.902;2024-02-04T04:19:27;101477.75;;;10.21;100.00
4836;BME280;66719;51.226;6.902;2024-02-04T04:21:54;101475.13;;;10.21;100.00
4836;BME280;66719;51.226;6.902;2024-02-04T04:24:21;101486.47;;;10.23;100.00
4836;BME280;66719;51.226;6.902;2024-02-04T04:26:48;101489.09;;;10.26;100.00
4836;BME280;66719;51.226;6.902;2024-02-04T04:29:15;101486.47;;;10.25;100.00
4836;BME280;66719;51.226;6.902;2024-02-04T04:31:41;101489.97;;;10.22;100.00
4836;BME280;66719;51.226;6.902;2024-02-04T04:34:08;101481.25;;;10.26;100.00
4836;BME280;66719;51.226;6.902;2024-02-04T04:36:35;101498.72;;;10.26;100.00
4836;BME280;66719;51.226;6.902;2024-02-04T04:39:01;101513.53;;;10.27;100.00
4836;BME280;66719;51.226;6.902;2024-02-04T04:41:28;101523.13;;;10.23;100.00
4836;BME280;66719;51.226;6.902;2024-02-04T04:43:55;101527.47;;;10.27;100.00
4836;BME280;66719;51.226;6.902;2024-02-04T04:46:21;101525.72;;;10.29;100.00
4836;BME280;66719;51.226;6.902;2024-02-04T04:48:48;101530.09;;;10.27;100.00
4836;BME280;66719;51.226;6.902;2024-02-04T04:51:14;101521.38;;;10.28;100.00
4836;BME280;66719;51.226;6.902;2024-02-04T04:53:41;101530.09;;;10.24;100.00
4836;BME280;66719;51.226;6.902;2024-02-04T04:56:08;101514.41;;;10.26;100.00
4836;BME280;66719;51.226;6.902;2024-02-04T04:58:37;101499.56;;;10.28;100.00
4836;BME280;66719;51.226;6.902;2024-02-04T05:01:04;101489.97;;;10.27;100.00
4836;BME280;66719;51.226;6.902;2024-02-04T05:03:32;101482.97;;;10.24;100.00
4836;BME280;66719;51.226;6.902;2024-02-04T05:05:59;101488.22;;;10.23;100.00
4836;BME280;66719;51.226;6.902;2024-02-04T05:08:27;101496.06;;;10.21;100.00
4836;BME280;66719;51.226;6.902;2024-02-04T05:10:53;101491.69;;;10.22;100.00
4836;BME280;66719;51.226;6.902;2024-02-04T05:13:20;101490.84;;;10.21;100.00
4836;BME280;66719;51.226;6.902;2024-02-04T05:15:47;101491.72;;;10.20;100.00
4836;BME280;66719;51.226;6.902;2024-02-04T05:18:13;101496.06;;;10.21;100.00
4836;BME280;66719;51.226;6.902;2024-02-04T05:20:40;101491.72;;;10.23;100.00
4836;BME280;66719;51.226;6.902;2024-02-04T05:23:07;101489.09;;;10.20;100.00
4836;BME280;66719;51.226;6.902;2024-02-04T05:25:34;101489.09;;;10.20;100.00
4836;BME280;66719;51.226;6.902;2024-02-04T05:28:00;101492.59;;;10.19;100.00
4836;BME280;66719;51.226;6.902;2024-02-04T05:30:27;101497.81;;;10.24;100.00
4836;BME280;66719;51.226;6.902;2024-02-04T05:32:53;101489.09;;;10.23;100.00
4836;BME280;66719;51.226;6.902;2024-02-04T05:35:20;101489.97;;;10.22;100.00
4836;BME280;66719;51.226;6.902;2024-02-04T05:37:47;101492.59;;;10.22;100.00
4836;BME280;66719;51.226;6.902;2024-02-04T05:40:13;101483.88;;;10.26;100.00
4836;BME280;66719;51.226;6.902;2024-02-04T05:42:42;101479.53;;;10.25;100.00
4836;BME280;66719;51.226;6.902;2024-02-04T05:45:09;101477.75;;;10.24;100.00
4836;BME280;66719;51.226;6.902;2024-02-04T05:47:35;101473.41;;;10.23;100.00
4836;BME280;66719;51.226;6.902;2024-02-04T05:50:02;101473.41;;;10.23;100.00
4836;BME280;66719;51.226;6.902;2024-02-04T05:52:29;101471.66;;;10.22;100.00
4836;BME280;66719;51.226;6.902;2024-02-04T05:54:55;101462.94;;;10.20;100.00
4836;BME280;66719;51.226;6.902;2024-02-04T05:57:22;101453.34;;;10.19;100.00
4836;BME280;66719;51.226;6.902;2024-02-04T05:59:50;101457.69;;;10.20;100.00
4836;BME280;66719;51.226;6.902;2024-02-04T06:02:19;101462.03;;;10.21;100.00
4836;BME280;66719;51.226;6.902;2024-02-04T06:04:45;101446.38;;;10.26;100.00
4836;BME280;66719;51.226;6.902;2024-02-04T06:07:13;101448.09;;;10.22;100.00
4836;BME280;66719;51.226;6.902;2024-02-04T06:09:39;101447.22;;;10.20;100.00
4836;BME280;66719;51.226;6.902;2024-02-04T06:12:06;101445.50;;;10.22;100.00
4836;BME280;66719;51.226;6.902;2024-02-04T06:14:33;101448.13;;;10.17;100.00
4836;BME280;66719;51.226;6.902;2024-02-04T06:17:01;101454.19;;;10.21;100.00
4836;BME280;66719;51.226;6.902;2024-02-04T06:19:27;101451.56;;;10.24;100.00
4836;BME280;66719;51.226;6.902;2024-02-04T06:21:54;101462.06;;;10.27;100.00
4836;BME280;66719;51.226;6.902;2024-02-04T06:24:21;101468.16;;;10.26;100.00
4836;BME280;66719;51.226;6.902;2024-02-04T06:26:47;101454.19;;;10.29;100.00
4836;BME280;66719;51.226;6.902;2024-02-04T06:29:14;101451.59;;;10.27;100.00
4836;BME280;66719;51.226;6.902;2024-02-04T06:31:44;101449.81;;;10.29;100.00
4836;BME280;66719;51.226;6.902;2024-02-04T06:34:11;101449.84;;;10.28;100.00
4836;BME280;66719;51.226;6.902;2024-02-04T06:36:38;101440.25;;;10.27;100.00
4836;BME280;66719;51.226;6.902;2024-02-04T06:39:05;101442.00;;;10.26;100.00
4836;BME280;66719;51.226;6.902;2024-02-04T06:41:33;101433.25;;;10.27;100.00
4836;BME280;66719;51.226;6.902;2024-02-04T06:44:03;101423.69;;;10.26;100.00
4836;BME280;66719;51.226;6.902;2024-02-04T06:46:30;101427.16;;;10.27;100.00
4836;BME280;66719;51.226;6.902;2024-02-04T06:48:57;101433.25;;;10.27;100.00
4836;BME280;66719;51.226;6.902;2024-02-04T06:51:24;101441.09;;;10.29;100.00
4836;BME280;66719;51.226;6.902;2024-02-04T06:53:50;101444.59;;;10.28;100.00
4836;BME280;66719;51.226;6.902;2024-02-04T06:56:17;101436.75;;;10.26;100.00
4836;BME280;66719;51.226;6.902;2024-02-04T06:58:43;101434.16;;;10.26;100.00
4836;BME280;66719;51.226;6.902;2024-02-04T07:01:11;101429.75;;;10.28;100.00
4836;BME280;66719;51.226;6.902;2024-02-04T07:03:38;101417.56;;;10.24;100.00
4836;BME280;66719;51.226;6.902;2024-02-04T07:06:05;101410.56;;;10.25;100.00
4836;BME280;66719;51.226;6.902;2024-02-04T07:08:32;101416.72;;;10.25;100.00
4836;BME280;66719;51.226;6.902;2024-02-04T07:10:58;101434.13;;;10.28;100.00
4836;BME280;66719;51.226;6.902;2024-02-04T07:13:26;101425.41;;;10.24;100.00
4836;BME280;66719;51.226;6.902;2024-02-04T07:15:52;101427.16;;;10.24;100.00
4836;BME280;66719;51.226;6.902;2024-02-04T07:18:20;101429.78;;;10.27;100.00
4836;BME280;66719;51.226;6.902;2024-02-04T07:20:48;101428.91;;;10.23;100.00
4836;BME280;66719;51.226;6.902;2024-02-04T07:23:15;101426.28;;;10.28;100.00
4836;BME280;66719;51.226;6.902;2024-02-04T07:25:42;101423.69;;;10.23;100.00
4836;BME280;66719;51.226;6.902;2024-02-04T07:28:08;101425.44;;;10.18;100.00
4836;BME280;66719;51.226;6.902;2024-02-04T07:30:35;101436.78;;;10.17;100.00
4836;BME280;66719;51.226;6.902;2024-02-04T07:33:02;101448.13;;;10.14;100.00
4836;BME280;66719;51.226;6.902;2024-02-04T07:35:28;101442.88;;;10.16;100.00
4836;BME280;66719;51.226;6.902;2024-02-04T07:37:55;101437.63;;;10.16;100.00
4836;BME280;66719;51.226;6.902;2024-02-04T07:40:22;101431.53;;;10.20;100.00
4836;BME280;66719;51.226;6.902;2024-02-04T07:42:48;101437.63;;;10.24;100.00
4836;BME280;66719;51.226;6.902;2024-02-04T07:45:15;101455.06;;;10.25;100.00
4836;BME280;66719;51.226;6.902;2024-02-04T07:47:42;101454.19;;;10.24;100.00
4836;BME280;66719;51.226;6.902;2024-02-04T07:50:08;101443.75;;;10.26;100.00
4836;BME280;66719;51.226;6.902;2024-02-04T07:52:35;101436.75;;;10.28;100.00
4836;BME280;66719;51.226;6.902;2024-02-04T07:55:02;101431.50;;;10.22;100.00
4836;BME280;66719;51.226;6.902;2024-02-04T07:57:28;101428.03;;;10.24;100.00
4836;BME280;66719;51.226;6.902;2024-02-04T07:59:55;101431.50;;;10.25;100.00
4836;BME280;66719;51.226;6.902;2024-02-04T08:02:22;101434.13;;;10.25;100.00
4836;BME280;66719;51.226;6.902;2024-02-04T08:04:48;101425.44;;;10.26;100.00
4836;BME280;66719;51.226;6.902;2024-02-04T08:07:15;101432.41;;;10.25;100.00
4836;BME280;66719;51.226;6.902;2024-02-04T08:09:45;101428.91;;;10.26;100.00
4836;BME280;66719;51.226;6.902;2024-02-04T08:12:11;101421.06;;;10.23;100.00
4836;BME280;66719;51.226;6.902;2024-02-04T08:14:38;101410.59;;;10.20;100.00
4836;BME280;66719;51.226;6.902;2024-02-04T08:17:04;101415.81;;;10.20;100.00
4836;BME280;66719;51.226;6.902;2024-02-04T08:19:31;101425.41;;;10.23;100.00
4836;BME280;66719;51.226;6.902;2024-02-04T08:21:58;101428.03;;;10.21;100.00
4836;BME280;66719;51.226;6.902;2024-02-04T08:24:25;101428.03;;;10.21;100.00
4836;BME280;66719;51.226;6.902;2024-02-04T08:26:51;101437.66;;;10.22;100.00
4836;BME280;66719;51.226;6.902;2024-02-04T08:29:19;101435.03;;;10.19;100.00
4836;BME280;66719;51.226;6.902;2024-02-04T08:31:45;101430.63;;;10.21;100.00
4836;BME280;66719;51.226;6.902;2024-02-04T08:34:12;101434.16;;;10.23;100.00
4836;BME280;66719;51.226;6.902;2024-02-04T08:36:39;101433.25;;;10.24;100.00
4836;BME280;66719;51.226;6.902;2024-02-04T08:39:05;101433.25;;;10.24;100.00
4836;BME280;66719;51.226;6.902;2024-02-04T08:41:32;101430.63;;;10.21;100.00
4836;BME280;66719;51.226;6.902;2024-02-04T08:43:58;101428.91;;;10.23;100.00
4836;BME280;66719;51.226;6.902;2024-02-04T08:46:29;101434.16;;;10.26;100.00
4836;BME280;66719;51.226;6.902;2024-02-04T08:48:56;101425.38;;;10.30;100.00
4836;BME280;66719;51.226;6.902;2024-02-04T08:51:22;101427.09;;;10.33;100.00
4836;BME280;66719;51.226;6.902;2024-02-04T08:53:49;101429.75;;;10.28;100.00
4836;BME280;66719;51.226;6.902;2024-02-04T08:56:15;101435.81;;;10.33;100.00
4836;BME280;66719;51.226;6.902;2024-02-04T08:58:43;101432.34;;;10.33;100.00
4836;BME280;66719;51.226;6.902;2024-02-04T09:01:10;101433.22;;;10.32;100.00
4836;BME280;66719;51.226;6.902;2024-02-04T09:03:36;101435.84;;;10.30;100.00
4836;BME280;66719;51.226;6.902;2024-02-04T09:06:03;101427.97;;;10.32;100.00
4836;BME280;66719;51.226;6.902;2024-02-04T09:08:30;101428.88;;;10.34;100.00
4836;BME280;66719;51.226;6.902;2024-02-04T09:10:57;101427.97;;;10.36;100.00
4836;BME280;66719;51.226;6.902;2024-02-04T09:13:23;101417.50;;;10.36;100.00
4836;BME280;66719;51.226;6.902;2024-02-04T09:15:50;101430.59;;;10.35;100.00
4836;BME280;66719;51.226;6.902;2024-02-04T09:18:17;101427.97;;;10.36;100.00
4836;BME280;66719;51.226;6.902;2024-02-04T09:20:44;101430.56;;;10.39;100.00
4836;BME280;66719;51.226;6.902;2024-02-04T09:25:38;101442.75;;;10.42;100.00
4836;BME280;66719;51.226;6.902;2024-02-04T09:28:05;101444.53;;;10.43;100.00
4836;BME280;66719;51.226;6.902;2024-02-04T09:30:32;101445.34;;;10.46;100.00
4836;BME280;66719;51.226;6.902;2024-02-04T09:32:58;101443.59;;;10.48;100.00
4836;BME280;66719;51.226;6.902;2024-02-04T09:35:25;101445.34;;;10.46;100.00
4836;BME280;66719;51.226;6.902;2024-02-04T09:37:52;101441.84;;;10.47;100.00
4836;BME280;66719;51.226;6.902;2024-02-04T09:40:19;101447.09;;;10.46;100.00
4836;BME280;66719;51.226;6.902;2024-02-04T09:42:46;101449.72;;;10.47;100.00
4836;BME280;66719;51.226;6.902;2024-02-04T09:45:14;101449.72;;;10.47;100.00
4836;BME280;66719;51.226;6.902;2024-02-04T09:47:42;101450.63;;;10.43;100.00
4836;BME280;66719;51.226;6.902;2024-02-04T09:50:10;101447.09;;;10.47;100.00
4836;BME280;66719;51.226;6.902;2024-02-04T09:52:40;101443.63;;;10.45;100.00
4836;BME280;66719;51.226;6.902;2024-02-04T09:55:10;101441.88;;;10.46;100.00
4836;BME280;66719;51.226;6.902;2024-02-04T09:57:39;101431.44;;;10.43;100.00
4836;BME280;66719;51.226;6.902;2024-02-04T10:00:06;101440.13;;;10.46;100.00
4836;BME280;66719;51.226;6.902;2024-02-04T10:02:35;101447.09;;;10.47;100.00
4836;BME280;66719;51.226;6.902;2024-02-04T10:05:03;101435.72;;;10.48;100.00
4836;BME280;66719;51.226;6.902;2024-02-04T10:07:30;101428.72;;;10.51;100.00
4836;BME280;66719;51.226;6.902;2024-02-04T10:09:57;101428.72;;;10.54;100.00
4836;BME280;66719;51.226;6.902;2024-02-04T10:12:24;101425.19;;;10.58;100.00
4836;BME280;66719;51.226;6.902;2024-02-04T10:14:50;101436.53;;;10.60;100.00
4836;BME280;66719;51.226;6.902;2024-02-04T10:17:17;101436.53;;;10.60;100.00
4836;BME280;66719;51.226;6.902;2024-02-04T10:19:43;101445.25;;;10.59;100.00
4836;BME280;66719;51.226;6.902;2024-02-04T10:22:10;101438.28;;;10.61;100.00
4836;BME280;66719;51.226;6.902;2024-02-04T10:24:37;101453.09;;;10.63;100.00
4836;BME280;66719;51.226;6.902;2024-02-04T10:27:04;101440.03;;;10.62;100.00
4836;BME280;66719;51.226;6.902;2024-02-04T10:29:30;101447.84;;;10.65;100.00
4836;BME280;66719;51.226;6.902;2024-02-04T10:31:57;101450.47;;;10.65;100.00
4836;BME280;66719;51.226;6.902;2024-02-04T10:34:27;101445.22;;;10.66;100.00
4836;BME280;66719;51.226;6.902;2024-02-04T10:36:57;101441.72;;;10.67;100.00
4836;BME280;66719;51.226;6.902;2024-02-04T10:39:23;101439.97;;;10.68;100.00
4836;BME280;66719;51.226;6.902;2024-02-04T10:41:51;101441.72;;;10.67;100.00
4836;BME280;66719;51.226;6.902;2024-02-04T10:44:23;101440.81;;;10.68;100.00
4836;BME280;66719;51.226;6.902;2024-02-04T10:46:51;101455.66;;;10.71;100.00
4836;BME280;66719;51.226;6.902;2024-02-04T10:49:19;101446.06;;;10.68;100.00
4836;BME280;66719;51.226;6.902;2024-02-04T10:51:46;101440.84;;;10.65;100.00
4836;BME280;66719;51.226;6.902;2024-02-04T10:54:16;101444.34;;;10.66;100.00
4836;BME280;66719;51.226;6.902;2024-02-04T10:56:54;101437.38;;;10.63;100.00
4836;BME280;66719;51.226;6.902;2024-02-04T10:59:22;101442.63;;;10.62;100.00
4836;BME280;66719;51.226;6.902;2024-02-04T11:01:49;101438.28;;;10.58;100.00
4836;BME280;66719;51.226;6.902;2024-02-04T11:04:17;101429.59;;;10.56;100.00
4836;BME280;66719;51.226;6.902;2024-02-04T11:06:44;101425.19;;;10.58;100.00
4836;BME280;66719;51.226;6.902;2024-02-04T11:09:13;101427.84;;;10.55;100.00
4836;BME280;66719;51.226;6.902;2024-02-04T11:11:41;101426.09;;;10.57;100.00
4836;BME280;66719;51.226;6.902;2024-02-04T11:14:11;101421.75;;;10.54;100.00
4836;BME280;66719;51.226;6.902;2024-02-04T11:24:59;101411.25;;;10.56;100.00
4836;BME280;66719;51.226;6.902;2024-02-04T11:27:29;101413.84;;;10.57;100.00
4836;BME280;66719;51.226;6.902;2024-02-04T11:29:56;101400.78;;;10.54;100.00
4836;BME280;66719;51.226;6.902;2024-02-04T11:32:24;101391.22;;;10.53;100.00
4836;BME280;66719;51.226;6.902;2024-02-04T11:34:53;101393.78;;;10.56;100.00
4836;BME280;66719;51.226;6.902;2024-02-04T11:37:22;101386.84;;;10.54;100.00
4836;BME280;66719;51.226;6.902;2024-02-04T11:39:51;101392.06;;;10.55;100.00
4836;BME280;66719;51.226;6.902;2024-02-04T11:42:19;101394.72;;;10.52;100.00
4836;BME280;66719;51.226;6.902;2024-02-04T11:44:46;101389.41;;;10.57;100.00
4836;BME280;66719;51.226;6.902;2024-02-04T11:47:23;101378.91;;;10.60;100.00
4836;BME280;66719;51.226;6.902;2024-02-04T11:49:58;101380.69;;;10.61;100.00
4836;BME280;66719;51.226;6.902;2024-02-04T11:52:28;101371.97;;;10.60;100.00
4836;BME280;66719;51.226;6.902;2024-02-04T11:54:55;101371.91;;;10.65;100.00
4836;BME280;66719;51.226;6.902;2024-02-04T11:57:23;101367.50;;;10.67;100.00
4836;BME280;66719;51.226;6.902;2024-02-04T11:59:51;101367.50;;;10.68;100.00
4836;BME280;66719;51.226;6.902;2024-02-04T12:02:19;101356.16;;;10.68;100.00
4836;BME280;66719;51.226;6.902;2024-02-04T12:04:48;101363.16;;;10.69;100.00
4836;BME280;66719;51.226;6.902;2024-02-04T12:07:15;101373.59;;;10.70;100.00
4836;BME280;66719;51.226;6.902;2024-02-04T12:09:42;101364.03;;;10.69;100.00
4836;BME280;66719;51.226;6.902;2024-02-04T12:12:09;101358.78;;;10.69;100.00
4836;BME280;66719;51.226;6.902;2024-02-04T12:14:36;101352.63;;;10.72;100.00
4836;BME280;66719;51.226;6.902;2024-02-04T12:17:10;101354.38;;;10.73;100.00
4836;BME280;66719;51.226;6.902;2024-02-04T12:19:37;101372.69;;;10.74;100.00
4836;BME280;66719;51.226;6.902;2024-02-04T12:22:10;101348.25;;;10.74;100.00
4836;BME280;66719;51.226;6.902;2024-02-04T12:24:37;101349.13;;;10.73;100.00
4836;BME280;66719;51.226;6.902;2024-02-04T12:27:05;101354.38;;;10.71;100.00
4836;BME280;66719;51.226;6.902;2024-02-04T12:29:32;101350.00;;;10.73;100.00
4836;BME280;66719;51.226;6.902;2024-02-04T12:32:00;101352.63;;;10.72;100.00
4836;BME280;66719;51.226;6.902;2024-02-04T12:34:27;101341.31;;;10.70;100.00
4836;BME280;66719;51.226;6.902;2024-02-04T12:36:58;101339.53;;;10.72;100.00
4836;BME280;66719;51.226;6.902;2024-02-04T12:39:25;101349.16;;;10.70;100.00
4836;BME280;66719;51.226;6.902;2024-02-04T12:41:52;101336.91;;;10.73;100.00
4836;BME280;66719;51.226;6.902;2024-02-04T12:44:20;101326.44;;;10.73;100.00
4836;BME280;66719;51.226;6.902;2024-02-04T12:46:50;101328.16;;;10.74;100.00
4836;BME280;66719;51.226;6.902;2024-02-04T12:49:19;101321.22;;;10.72;100.00
4836;BME280;66719;51.226;6.902;2024-02-04T12:51:47;101322.09;;;10.71;100.00
4836;BME280;66719;51.226;6.902;2024-02-04T12:54:14;101324.69;;;10.72;100.00
4836;BME280;66719;51.226;6.902;2024-02-04T12:56:44;101322.94;;;10.73;100.00
4836;BME280;66719;51.226;6.902;2024-02-04T12:59:12;101315.13;;;10.70;100.00
4836;BME280;66719;51.226;6.902;2024-02-04T13:01:59;101325.59;;;10.71;100.00